Time;durP1;ratioP1;P1;durP2;ratioP2;P2;SDS_P1;SDS_P2;PMS_P1;PMS_P2;Temp;Humidity;BMP_temperature;BMP_pressure;BME280_temperature;BME280_humidity;BME280_pressure;Samples;Min_cycle;Max_cycle;Signal;HPM_P1;HPM_P2
2021/12/15 00:01:36;;;;;;;78.55;44.08;;;10.50;99.90;;;;;;5033041;28;20484;-80
2021/12/15 00:04:02;;;;;;;83.70;44.63;;;10.50;99.90;;;;;;5033020;28;20025;-84
2021/12/15 00:06:29;;;;;;;86.97;43.83;;;10.50;99.90;;;;;;5033071;28;20061;-88
2021/12/15 00:08:57;;;;;;;83.80;42.55;;;10.50;99.90;;;;;;5033434;28;20017;-83
2021/12/15 00:11:32;;;;;;;81.05;43.58;;;10.40;99.90;;;;;;5034447;28;20063;-84
2021/12/15 00:13:58;;;;;;;77.85;42.90;;;10.50;99.90;;;;;;5047962;28;20024;-82
2021/12/15 00:16:24;;;;;;;75.38;42.25;;;10.50;99.90;;;;;;5058847;28;20010;-86
2021/12/15 00:18:50;;;;;;;80.30;42.92;;;10.50;99.90;;;;;;5043171;28;20048;-82
2021/12/15 00:21:19;;;;;;;80.90;43.25;;;10.40;99.90;;;;;;5034119;28;20088;-80
2021/12/15 00:23:46;;;;;;;80.32;42.63;;;10.40;99.90;;;;;;5033789;28;20052;-80
2021/12/15 00:26:13;;;;;;;74.97;41.42;;;10.40;99.90;;;;;;5033702;28;20040;-80
2021/12/15 00:28:39;;;;;;;78.70;41.60;;;10.40;99.90;;;;;;5032849;28;20033;-80
2021/12/15 00:31:05;;;;;;;82.45;43.83;;;10.40;99.90;;;;;;5032499;28;20030;-80
2021/12/15 00:33:32;;;;;;;79.68;42.67;;;10.40;99.90;;;;;;5033711;28;20041;-80
2021/12/15 00:35:58;;;;;;;72.03;40.38;;;10.50;99.90;;;;;;5037685;28;20033;-80
2021/12/15 00:38:24;;;;;;;76.47;41.90;;;10.50;99.90;;;;;;5037687;28;20393;-80
2021/12/15 00:40:50;;;;;;;71.78;41.15;;;10.50;99.90;;;;;;5037781;28;20029;-80
2021/12/15 00:43:16;;;;;;;79.47;42.42;;;10.50;99.90;;;;;;5037893;28;20063;-80
2021/12/15 00:45:43;;;;;;;77.75;43.25;;;10.50;99.90;;;;;;5037642;28;20041;-80
2021/12/15 00:48:08;;;;;;;75.32;41.70;;;10.50;99.90;;;;;;5037678;28;20026;-80
2021/12/15 00:50:35;;;;;;;78.35;42.75;;;10.50;99.90;;;;;;5037002;28;20026;-79
2021/12/15 00:53:02;;;;;;;71.65;40.72;;;10.50;99.90;;;;;;5037427;28;20026;-80
2021/12/15 00:55:29;;;;;;;79.70;42.33;;;10.50;99.90;;;;;;5036970;28;20025;-78
2021/12/15 00:57:55;;;;;;;76.68;42.78;;;10.50;99.90;;;;;;5037717;28;20033;-79
2021/12/15 01:00:28;;;;;;;76.72;43.50;;;10.50;99.90;;;;;;5037376;28;20479;-80
2021/12/15 01:02:55;;;;;;;;;;;10.50;99.90;;;;;;5037564;28;20025;-80
2021/12/15 01:05:25;;;;;;;75.40;40.80;;;10.50;99.90;;;;;;5037286;28;19913;-77
2021/12/15 01:07:52;;;;;;;81.97;43.78;;;10.50;99.90;;;;;;5037228;28;20032;-78
2021/12/15 01:10:25;;;;;;;83.00;45.20;;;10.50;99.90;;;;;;5042587;28;20017;-78
2021/12/15 01:20:49;;;;;;;78.50;42.97;;;10.50;99.90;;;;;;5036665;28;20032;-78
2021/12/15 01:23:17;;;;;;;76.05;43.97;;;10.50;99.90;;;;;;5036996;28;20100;-78
2021/12/15 01:25:52;;;;;;;82.50;45.55;;;10.40;99.90;;;;;;5036567;28;20033;-78
2021/12/15 01:28:18;;;;;;;74.18;41.95;;;10.50;99.90;;;;;;5036723;28;20025;-77
2021/12/15 01:30:47;;;;;;;81.57;44.97;;;10.50;99.90;;;;;;5036739;28;20033;-78
2021/12/15 01:33:13;;;;;;;83.88;45.22;;;10.50;99.90;;;;;;5036939;28;20026;-78
2021/12/15 01:35:42;;;;;;;82.90;43.30;;;10.50;99.90;;;;;;5036694;28;20061;-78
2021/12/15 01:38:08;;;;;;;78.47;43.95;;;10.40;99.90;;;;;;5036362;28;20022;-78
2021/12/15 01:40:39;;;;;;;78.63;43.90;;;10.50;99.90;;;;;;5036323;28;20084;-78
2021/12/15 01:46:58;;;;;;;88.13;46.78;;;10.50;99.90;;;;;;4959315;28;20634;-78
2021/12/15 01:49:45;;;;;;;82.20;44.67;;;10.50;99.90;;;;;;5036668;28;20105;-77
2021/12/15 01:52:23;;;;;;;81.20;43.97;;;10.50;99.90;;;;;;5036049;28;20503;-77
2021/12/15 01:54:59;;;;;;;82.18;44.03;;;10.50;99.90;;;;;;5036356;28;20428;-78
2021/12/15 01:57:28;;;;;;;81.80;45.15;;;10.50;99.90;;;;;;5036370;28;20068;-77
2021/12/15 01:59:54;;;;;;;82.93;45.17;;;10.50;99.90;;;;;;5036410;28;20029;-77
2021/12/15 02:02:21;;;;;;;87.55;46.80;;;10.50;99.90;;;;;;5036316;28;20037;-77
2021/12/15 02:04:48;;;;;;;85.38;46.28;;;10.50;99.90;;;;;;5036466;28;20041;-76
2021/12/15 02:07:16;;;;;;;89.75;47.38;;;10.50;99.90;;;;;;5037379;28;20528;-77
2021/12/15 02:10:01;;;;;;;76.10;43.75;;;10.50;99.90;;;;;;5054878;28;20025;-77
2021/12/15 02:12:34;;;;;;;83.95;45.20;;;10.50;99.90;;;;;;5041281;28;20127;-78
2021/12/15 02:15:03;;;;;;;78.85;43.92;;;10.60;99.90;;;;;;5035960;28;20355;-78
2021/12/15 02:17:29;;;;;;;75.20;42.20;;;10.60;99.90;;;;;;5035791;28;20022;-78
2021/12/15 02:19:55;;;;;;;85.85;46.20;;;10.60;99.90;;;;;;5035965;28;20388;-78
2021/12/15 02:22:21;;;;;;;78.20;45.15;;;10.60;99.90;;;;;;5035726;28;20522;-78
2021/12/15 02:24:50;;;;;;;83.43;45.90;;;10.50;99.90;;;;;;5035898;28;20037;-78
2021/12/15 02:27:15;;;;;;;80.53;44.92;;;10.50;99.90;;;;;;5035676;28;20070;-78
2021/12/15 02:29:44;;;;;;;82.57;45.88;;;10.60;99.90;;;;;;5035476;28;20029;-78
2021/12/15 02:37:40;;;;;;;73.35;42.60;;;10.60;99.90;;;;;;4955121;29;20527;-78
2021/12/15 02:40:11;;;;;;;76.15;42.30;;;10.60;99.90;;;;;;5018821;28;20087;-78
2021/12/15 02:42:41;;;;;;;74.63;43.20;;;10.60;99.90;;;;;;5035293;28;20060;-78
2021/12/15 02:45:10;;;;;;;77.18;43.22;;;10.60;99.90;;;;;;5035476;28;20358;-77
2021/12/15 02:47:36;;;;;;;76.28;43.25;;;10.60;99.90;;;;;;5035627;28;20029;-78
2021/12/15 02:50:05;;;;;;;78.60;43.28;;;10.60;99.90;;;;;;5035471;28;20473;-77
2021/12/15 02:52:31;;;;;;;76.85;42.47;;;10.60;99.90;;;;;;5035601;28;20105;-78
2021/12/15 02:54:56;;;;;;;72.25;42.47;;;10.60;99.90;;;;;;5035468;28;20522;-77
2021/12/15 02:57:22;;;;;;;74.63;42.63;;;10.60;99.90;;;;;;5034749;28;20025;-77
2021/12/15 03:03:27;;;;;;;74.75;42.13;;;10.60;99.90;;;;;;5006290;28;20042;-77
2021/12/15 03:05:55;;;;;;;73.00;42.03;;;10.60;99.90;;;;;;5059442;28;20033;-79
2021/12/15 03:08:28;;;;;;;77.47;43.03;;;10.50;99.90;;;;;;5044820;28;20029;-78
2021/12/15 03:16:23;;;;;;;78.13;41.40;;;10.60;99.90;;;;;;5034597;28;20448;-76
2021/12/15 03:18:49;;;;;;;80.85;42.55;;;10.50;99.90;;;;;;5034385;28;20056;-77
2021/12/15 03:21:22;;;;;;;78.32;41.88;;;10.50;99.90;;;;;;5034768;28;20085;-77
2021/12/15 03:23:56;;;;;;;72.40;41.05;;;10.50;99.90;;;;;;5034503;28;20030;-77
2021/12/15 03:26:32;;;;;;;72.43;41.42;;;10.50;99.90;;;;;;5034260;28;20057;-78
2021/12/15 03:34:48;;;;;;;75.47;40.05;;;10.60;99.90;;;;;;5034255;28;20029;-77
2021/12/15 03:37:26;;;;;;;75.93;42.05;;;10.60;99.90;;;;;;5034496;28;20036;-77
2021/12/15 03:40:04;;;;;;;75.35;41.42;;;10.60;99.90;;;;;;5034520;28;20032;-77
2021/12/15 03:42:35;;;;;;;70.97;40.55;;;10.50;99.90;;;;;;5034352;28;20037;-77
2021/12/15 03:45:05;;;;;;;78.85;42.40;;;10.50;99.90;;;;;;5034283;28;20091;-76
2021/12/15 03:47:34;;;;;;;76.20;41.20;;;10.60;99.90;;;;;;5033981;28;20029;-76
2021/12/15 03:50:01;;;;;;;74.35;39.25;;;10.60;99.90;;;;;;5033990;28;20096;-77
2021/12/15 03:52:27;;;;;;;77.15;41.63;;;10.60;99.90;;;;;;5033802;28;20025;-78
2021/12/15 03:54:53;;;;;;;76.60;42.35;;;10.60;99.90;;;;;;5034119;28;20389;-77
2021/12/15 03:57:20;;;;;;;73.20;40.72;;;10.60;99.90;;;;;;5034007;28;20017;-77
2021/12/15 03:59:49;;;;;;;73.93;40.67;;;10.50;99.90;;;;;;5037889;28;20443;-77
2021/12/15 04:02:18;;;;;;;74.28;41.95;;;10.50;99.90;;;;;;5054519;28;20026;-77
2021/12/15 04:04:46;;;;;;;76.43;40.00;;;10.50;99.90;;;;;;5048479;28;20084;-78
2021/12/15 04:07:12;;;;;;;71.25;39.80;;;10.50;99.90;;;;;;5033588;28;20025;-77
2021/12/15 04:09:39;;;;;;;74.85;40.55;;;10.50;99.90;;;;;;5033267;28;20119;-78
2021/12/15 04:12:05;;;;;;;73.63;40.35;;;10.50;99.90;;;;;;5033495;28;20045;-79
2021/12/15 04:14:41;;;;;;;76.03;41.17;;;10.60;99.90;;;;;;5033798;28;20026;-78
2021/12/15 04:17:17;;;;;;;72.50;40.72;;;10.60;99.90;;;;;;5033660;28;20036;-78
2021/12/15 04:19:43;;;;;;;74.60;41.20;;;10.60;99.90;;;;;;5033569;28;20021;-78
2021/12/15 04:22:09;;;;;;;75.80;41.80;;;10.60;99.90;;;;;;5033160;28;20032;-78
2021/12/15 04:24:36;;;;;;;78.30;42.20;;;10.60;99.90;;;;;;5033348;28;20484;-77
2021/12/15 04:27:03;;;;;;;74.38;40.10;;;10.60;99.90;;;;;;5033478;28;20022;-77
2021/12/15 04:29:29;;;;;;;68.65;40.15;;;10.50;99.90;;;;;;5033672;28;20032;-78
2021/12/15 04:32:09;;;;;;;71.80;39.47;;;10.50;99.90;;;;;;5033479;28;20030;-79
2021/12/15 04:34:34;;;;;;;73.85;40.90;;;10.50;99.90;;;;;;5033563;28;20033;-77
2021/12/15 04:37:00;;;;;;;73.15;39.95;;;10.50;99.90;;;;;;5033481;28;20492;-77
2021/12/15 04:39:27;;;;;;;70.93;38.50;;;10.60;99.90;;;;;;5033673;28;20026;-77
2021/12/15 04:41:56;;;;;;;67.60;38.50;;;10.60;99.90;;;;;;5033586;28;20373;-77
2021/12/15 04:44:26;;;;;;;69.38;39.00;;;10.50;99.90;;;;;;5033258;28;20029;-77
2021/12/15 04:47:01;;;;;;;79.07;42.33;;;10.50;99.90;;;;;;5033174;28;20037;-77
2021/12/15 04:49:33;;;;;;;71.93;38.95;;;10.50;99.90;;;;;;5033232;28;20030;-77
2021/12/15 04:51:59;;;;;;;68.55;38.42;;;10.60;99.90;;;;;;5033153;28;20033;-77
2021/12/15 04:54:25;;;;;;;72.90;40.20;;;10.50;99.90;;;;;;5033266;28;20056;-78
2021/12/15 04:56:52;;;;;;;72.43;40.50;;;10.60;99.90;;;;;;5037514;28;20028;-76
2021/12/15 04:59:17;;;;;;;72.35;39.70;;;10.60;99.90;;;;;;5053806;28;20029;-77
2021/12/15 05:01:45;;;;;;;74.70;40.85;;;10.60;99.90;;;;;;5045607;28;20491;-78
2021/12/15 05:04:11;;;;;;;72.07;38.38;;;10.60;99.90;;;;;;5033421;28;20099;-78
2021/12/15 05:06:37;;;;;;;73.43;39.15;;;10.60;99.90;;;;;;5033383;28;20025;-77
2021/12/15 05:09:05;;;;;;;71.63;40.13;;;10.60;99.90;;;;;;5032884;28;20389;-78
2021/12/15 05:11:31;;;;;;;70.80;37.75;;;10.60;99.90;;;;;;5032770;28;20095;-77
2021/12/15 05:13:56;;;;;;;68.82;37.72;;;10.60;99.90;;;;;;5032590;28;20050;-77
2021/12/15 05:16:22;;;;;;;70.55;39.17;;;10.70;99.90;;;;;;5033103;28;20083;-77
2021/12/15 05:18:49;;;;;;;69.05;37.47;;;10.60;99.90;;;;;;5032942;28;20388;-77
2021/12/15 05:21:16;;;;;;;73.63;40.10;;;10.70;99.90;;;;;;5035324;28;20033;-78
2021/12/15 05:23:44;;;;;;;67.53;37.63;;;10.60;99.90;;;;;;5035721;28;20104;-78
2021/12/15 05:26:10;;;;;;;73.43;39.55;;;10.60;99.90;;;;;;5036227;28;20362;-78
2021/12/15 05:28:36;;;;;;;73.95;39.80;;;10.60;99.90;;;;;;5036167;28;20580;-77
2021/12/15 05:31:03;;;;;;;68.53;39.50;;;10.60;99.90;;;;;;5036348;28;20033;-78
2021/12/15 05:33:28;;;;;;;71.72;39.92;;;10.60;99.90;;;;;;5036749;28;20022;-78
2021/12/15 05:35:56;;;;;;;72.72;39.70;;;10.70;99.90;;;;;;5036678;28;20377;-78
2021/12/15 05:38:22;;;;;;;71.30;38.88;;;10.60;99.90;;;;;;5036614;28;20030;-78
2021/12/15 05:40:50;;;;;;;67.28;39.42;;;10.60;99.90;;;;;;5036229;28;20033;-77
2021/12/15 05:43:16;;;;;;;71.57;40.28;;;10.60;99.90;;;;;;5036232;28;20493;-78
2021/12/15 05:45:43;;;;;;;73.05;40.38;;;10.70;99.90;;;;;;5036234;28;20037;-77
2021/12/15 05:48:11;;;;;;;72.18;40.17;;;10.70;99.90;;;;;;5036239;28;20026;-77
2021/12/15 05:50:38;;;;;;;68.38;37.97;;;10.70;99.90;;;;;;5036293;28;20033;-78
2021/12/15 05:53:05;;;;;;;68.70;38.53;;;10.70;99.90;;;;;;5038825;28;20389;-76
2021/12/15 05:55:31;;;;;;;74.15;39.88;;;10.70;99.90;;;;;;5056087;28;20025;-77
2021/12/15 05:57:57;;;;;;;74.40;39.65;;;10.70;99.90;;;;;;5053146;28;20462;-77
2021/12/15 06:00:30;;;;;;;66.95;38.90;;;10.70;99.90;;;;;;5036277;28;20032;-78
2021/12/15 06:02:57;;;;;;;74.30;41.58;;;10.70;99.90;;;;;;5036160;28;20029;-78
2021/12/15 06:05:24;;;;;;;69.90;39.50;;;10.70;99.90;;;;;;5035868;28;20452;-78
2021/12/15 06:07:50;;;;;;;71.55;39.22;;;10.60;99.90;;;;;;5035735;28;20045;-78
2021/12/15 06:10:21;;;;;;;68.63;38.92;;;10.60;99.90;;;;;;5035773;28;20429;-79
2021/12/15 06:12:49;;;;;;;75.50;40.08;;;10.70;99.90;;;;;;5035724;28;20464;-77
2021/12/15 06:15:21;;;;;;;68.60;38.65;;;10.70;99.90;;;;;;5035513;28;20384;-78
2021/12/15 06:17:56;;;;;;;71.32;39.42;;;10.70;99.90;;;;;;5035604;28;20117;-78
2021/12/15 06:20:22;;;;;;;73.25;40.83;;;10.70;99.90;;;;;;5035880;28;20411;-78
2021/12/15 06:22:48;;;;;;;71.75;39.72;;;10.70;99.90;;;;;;5035502;28;20427;-78
2021/12/15 06:25:13;;;;;;;70.45;40.13;;;10.70;99.90;;;;;;5035453;28;20029;-78
2021/12/15 06:27:40;;;;;;;71.63;38.78;;;10.70;99.90;;;;;;5035509;28;20028;-78
2021/12/15 06:30:08;;;;;;;74.90;40.17;;;10.70;99.90;;;;;;5035264;28;20507;-78
2021/12/15 06:32:34;;;;;;;74.93;42.05;;;10.70;99.90;;;;;;5034383;28;20580;-77
2021/12/15 06:34:59;;;;;;;76.00;41.35;;;10.70;99.90;;;;;;5035328;28;20496;-77
2021/12/15 06:37:26;;;;;;;67.28;39.65;;;10.70;99.90;;;;;;5035558;28;20104;-79
2021/12/15 06:39:51;;;;;;;77.15;43.40;;;10.70;99.90;;;;;;5035530;28;20033;-78
2021/12/15 06:42:17;;;;;;;75.80;41.67;;;10.70;99.90;;;;;;5035131;28;20033;-77
2021/12/15 06:44:44;;;;;;;73.53;40.95;;;10.70;99.90;;;;;;5035201;28;20105;-77
2021/12/15 07:00:31;;;;;;;75.28;42.13;;;10.70;99.90;;;;;;5035460;28;20083;-79
2021/12/15 07:02:58;;;;;;;79.55;41.58;;;10.70;99.90;;;;;;5035325;28;20059;-79
2021/12/15 07:05:24;;;;;;;80.35;42.72;;;10.70;99.90;;;;;;5035161;28;20121;-79
2021/12/15 07:07:51;;;;;;;73.20;40.70;;;10.80;99.90;;;;;;5035137;28;20767;-80
2021/12/15 07:10:21;;;;;;;70.60;39.50;;;10.70;99.90;;;;;;5032809;28;20029;-79
2021/12/15 07:12:47;;;;;;;76.32;41.72;;;10.80;99.90;;;;;;5032250;28;20847;-80
2021/12/15 07:15:14;;;;;;;79.07;42.28;;;10.70;99.90;;;;;;5032942;28;20025;-79
2021/12/15 07:17:40;;;;;;;76.78;41.65;;;10.70;99.90;;;;;;5033015;28;20036;-77
2021/12/15 07:20:32;;;;;;;76.13;41.28;;;10.70;99.90;;;;;;5032755;28;20468;-77
2021/12/15 07:22:55;;;;;;;77.88;40.67;;;10.70;99.90;;;;;;5033251;28;20044;-79
2021/12/15 07:25:21;;;;;;;78.82;41.38;;;10.70;99.90;;;;;;5035182;28;20041;-83
2021/12/15 07:27:48;;;;;;;80.72;42.38;;;10.70;99.90;;;;;;5034987;28;20025;-82
2021/12/15 07:30:14;;;;;;;84.15;41.65;;;10.70;99.90;;;;;;5038147;28;20030;-80
2021/12/15 07:32:40;;;;;;;86.00;42.10;;;10.70;99.90;;;;;;5050137;28;20465;-80
2021/12/15 07:35:07;;;;;;;93.60;43.50;;;10.70;99.90;;;;;;5050709;28;20048;-82
2021/12/15 07:37:33;;;;;;;89.82;45.10;;;10.70;99.90;;;;;;5034181;28;20032;-80
2021/12/15 07:40:00;;;;;;;95.38;45.28;;;10.70;99.90;;;;;;5039037;28;20033;-81
2021/12/15 07:42:34;;;;;;;91.32;43.70;;;10.70;99.90;;;;;;5045359;28;20108;-80
2021/12/15 07:45:01;;;;;;;97.47;43.13;;;10.70;99.90;;;;;;5044310;28;20104;-80
2021/12/15 07:47:26;;;;;;;88.97;44.45;;;10.70;99.90;;;;;;5052485;28;20025;-81
2021/12/15 07:49:52;;;;;;;99.05;46.22;;;10.70;99.90;;;;;;5066332;28;20017;-82
2021/12/15 07:52:18;;;;;;;96.05;43.67;;;10.70;99.90;;;;;;5056522;28;20451;-82
2021/12/15 07:54:43;;;;;;;96.30;43.67;;;10.70;99.90;;;;;;5041323;28;20033;-83
2021/12/15 07:57:17;;;;;;;103.93;45.00;;;10.70;99.90;;;;;;5048814;28;20025;-81
2021/12/15 07:59:43;;;;;;;97.72;43.58;;;10.70;99.90;;;;;;5044232;28;20035;-81
2021/12/15 08:02:08;;;;;;;98.82;44.38;;;10.70;99.90;;;;;;5034650;28;20025;-80
2021/12/15 08:04:34;;;;;;;100.20;44.78;;;10.70;99.90;;;;;;5038077;28;20025;-82
2021/12/15 08:07:00;;;;;;;104.38;45.15;;;10.70;99.90;;;;;;5053778;28;20113;-82
2021/12/15 08:09:26;;;;;;;97.30;43.70;;;10.70;99.90;;;;;;5052324;28;20063;-86
2021/12/15 08:11:51;;;;;;;96.32;42.70;;;10.70;99.90;;;;;;5041079;28;20049;-84
2021/12/15 08:14:18;;;;;;;90.10;41.92;;;10.70;99.90;;;;;;5035959;28;20030;-84
2021/12/15 08:16:43;;;;;;;105.72;43.05;;;10.70;99.90;;;;;;5047995;28;20033;-81
2021/12/15 08:19:14;;;;;;;101.68;44.70;;;10.70;99.90;;;;;;5045280;28;20029;-81
2021/12/15 08:21:40;;;;;;;102.57;43.42;;;10.70;99.90;;;;;;5052007;28;20029;-82
2021/12/15 08:24:05;;;;;;;99.38;44.00;;;10.70;99.90;;;;;;5051731;28;20043;-82
2021/12/15 08:26:31;;;;;;;107.43;44.70;;;10.70;99.90;;;;;;5050002;28;20033;-82
2021/12/15 08:28:57;;;;;;;103.45;42.90;;;10.70;99.90;;;;;;5051197;28;20325;-82
2021/12/15 08:31:23;;;;;;;111.22;46.75;;;10.70;99.90;;;;;;5042206;28;20022;-81
2021/12/15 08:33:49;;;;;;;107.38;45.47;;;10.70;99.90;;;;;;5035232;28;20036;-82
2021/12/15 08:36:15;;;;;;;105.13;44.35;;;10.70;99.90;;;;;;5041555;28;20033;-82
2021/12/15 08:38:44;;;;;;;108.28;46.00;;;10.70;99.90;;;;;;5052631;28;20100;-81
2021/12/15 08:41:20;;;;;;;113.15;46.60;;;10.70;99.90;;;;;;5041435;28;20128;-82
2021/12/15 08:43:46;;;;;;;110.97;45.83;;;10.70;99.90;;;;;;5063638;28;20051;-81
2021/12/15 08:46:17;;;;;;;111.05;45.88;;;10.70;99.90;;;;;;5066801;28;20049;-81
2021/12/15 08:48:44;;;;;;;102.95;44.60;;;10.70;99.90;;;;;;5039542;28;20354;-82
2021/12/15 08:51:11;;;;;;;103.65;45.13;;;10.80;99.90;;;;;;5035188;28;20040;-82
2021/12/15 08:53:39;;;;;;;109.80;46.20;;;10.70;99.90;;;;;;5053491;28;20021;-83
2021/12/15 08:56:05;;;;;;;108.72;45.30;;;10.70;99.90;;;;;;5055364;28;20533;-83
2021/12/15 08:58:30;;;;;;;109.32;45.47;;;10.70;99.90;;;;;;5039465;28;20060;-82
2021/12/15 09:00:58;;;;;;;107.80;47.05;;;10.70;99.90;;;;;;5045982;28;20044;-82
2021/12/15 09:03:25;;;;;;;103.28;46.75;;;10.70;99.90;;;;;;5039444;28;20119;-83
2021/12/15 09:05:53;;;;;;;107.50;44.85;;;10.70;99.90;;;;;;5046298;28;20047;-83
2021/12/15 09:08:20;;;;;;;104.68;44.00;;;10.70;99.90;;;;;;5046162;28;20040;-83
2021/12/15 09:10:47;;;;;;;103.47;45.65;;;10.70;99.90;;;;;;5057054;28;20036;-84
2021/12/15 09:13:13;;;;;;;107.78;46.25;;;10.70;99.90;;;;;;5040789;28;20056;-82
2021/12/15 09:15:40;;;;;;;104.40;44.72;;;10.70;99.90;;;;;;5036667;28;20022;-80
2021/12/15 09:18:07;;;;;;;100.80;43.58;;;10.80;99.90;;;;;;5045356;28;20037;-82
2021/12/15 09:20:34;;;;;;;104.78;45.35;;;10.70;99.90;;;;;;5023850;28;20018;-83
2021/12/15 09:23:02;;;;;;;105.45;45.72;;;10.70;99.90;;;;;;5024923;28;20031;-83
2021/12/15 09:25:28;;;;;;;102.07;45.47;;;10.80;99.90;;;;;;5026295;28;20043;-84
2021/12/15 09:27:58;;;;;;;107.43;45.35;;;10.80;99.90;;;;;;5018080;28;20469;-84
2021/12/15 09:30:25;;;;;;;104.57;46.28;;;10.80;99.90;;;;;;5022728;28;20104;-87
2021/12/15 09:32:51;;;;;;;103.75;45.20;;;10.80;99.90;;;;;;5042516;28;20585;-82
2021/12/15 09:35:19;;;;;;;102.53;44.38;;;10.80;99.90;;;;;;5040588;28;20037;-84
2021/12/15 09:37:48;;;;;;;108.03;46.60;;;10.80;99.90;;;;;;5043239;28;20028;-83
2021/12/15 09:40:16;;;;;;;105.82;45.35;;;10.80;99.90;;;;;;5045287;28;20059;-80
2021/12/15 09:42:42;;;;;;;111.72;49.00;;;10.80;99.90;;;;;;5064352;28;20021;-90
2021/12/15 09:45:46;;;;;;;106.15;45.83;;;10.80;99.90;;;;;;5057483;28;20108;-90
2021/12/15 10:17:51;;;;;;;98.65;44.90;;;10.80;99.90;;;;;;5035243;28;20078;-83
2021/12/15 10:20:21;;;;;;;98.85;44.92;;;10.80;99.90;;;;;;5035449;28;20103;-81
2021/12/15 10:22:51;;;;;;;95.53;45.92;;;10.80;99.90;;;;;;5035760;28;20022;-81
2021/12/15 10:25:24;;;;;;;94.45;45.83;;;10.80;99.90;;;;;;5034757;28;20025;-81
2021/12/15 10:28:11;;;;;;;96.35;45.63;;;10.90;99.90;;;;;;5041120;28;20164;-81
2021/12/15 10:30:44;;;;;;;95.05;44.40;;;10.90;99.90;;;;;;5040948;28;20704;-81
2021/12/15 10:33:12;;;;;;;94.75;44.83;;;10.90;99.90;;;;;;5035260;28;20104;-86
2021/12/15 10:35:54;;;;;;;89.93;43.20;;;10.90;99.90;;;;;;5046335;28;20087;-84
2021/12/15 10:38:31;;;;;;;87.68;43.15;;;11.00;99.90;;;;;;5054727;28;20016;-79
2021/12/15 10:41:19;;;;;;;95.15;45.13;;;11.00;99.90;;;;;;5062315;28;20018;-79
2021/12/15 10:44:09;;;;;;;92.25;46.75;;;11.00;99.90;;;;;;5033890;28;20060;-80
2021/12/15 10:46:50;;;;;;;86.28;43.35;;;11.00;99.90;;;;;;5035097;28;20037;-80
2021/12/15 10:49:24;;;;;;;98.45;47.40;;;11.10;99.90;;;;;;5041690;28;20020;-81
2021/12/15 10:52:07;;;;;;;88.35;44.67;;;11.10;99.90;;;;;;5037984;28;20025;-81
2021/12/15 10:54:56;;;;;;;;;;;11.20;99.90;;;;;;5029858;28;20033;-81
2021/12/15 10:57:34;;;;;;;91.72;45.85;;;11.10;99.90;;;;;;5044154;28;19912;-80
2021/12/15 11:00:00;;;;;;;83.00;44.97;;;11.20;99.90;;;;;;5033755;28;20041;-80
2021/12/15 11:02:28;;;;;;;84.63;44.08;;;11.20;99.90;;;;;;5038134;28;20491;-80
2021/12/15 11:05:07;;;;;;;83.85;45.05;;;11.20;99.90;;;;;;5044437;28;20504;-80
2021/12/15 11:07:40;;;;;;;83.22;44.97;;;11.20;99.90;;;;;;5042176;28;20057;-80
2021/12/15 11:10:10;;;;;;;79.90;43.17;;;11.20;99.90;;;;;;5038301;28;20045;-80
2021/12/15 11:12:41;;;;;;;78.85;43.30;;;11.30;99.90;;;;;;5041951;28;20053;-85
2021/12/15 11:15:14;;;;;;;82.43;44.28;;;11.20;99.90;;;;;;5033565;28;20036;-80
2021/12/15 11:17:43;;;;;;;79.05;44.25;;;11.30;99.90;;;;;;5035525;28;20028;-79
2021/12/15 11:20:13;;;;;;;80.22;43.38;;;11.30;99.90;;;;;;5028021;28;20036;-81
2021/12/15 11:22:41;;;;;;;79.80;44.05;;;11.40;99.90;;;;;;5026190;28;20050;-81
2021/12/15 11:25:32;;;;;;;78.20;42.55;;;11.40;99.90;;;;;;5024550;28;20042;-81
2021/12/15 11:28:02;;;;;;;73.25;41.08;;;11.30;99.90;;;;;;5014997;28;20048;-81
2021/12/15 11:30:40;;;;;;;72.00;42.95;;;11.40;99.90;;;;;;5036756;28;20029;-81
2021/12/15 11:33:20;;;;;;;76.10;42.53;;;11.40;99.90;;;;;;5057223;28;20076;-80
2021/12/15 11:35:58;;;;;;;69.10;40.60;;;11.40;99.90;;;;;;5072592;28;20025;-81
2021/12/15 11:38:28;;;;;;;71.60;42.28;;;11.40;99.90;;;;;;5066085;28;20033;-82
2021/12/15 11:40:57;;;;;;;64.57;39.33;;;11.40;99.90;;;;;;5052979;28;20403;-80
2021/12/15 11:43:48;;;;;;;69.93;42.15;;;11.40;99.90;;;;;;5048334;28;20017;-81
2021/12/15 11:46:36;;;;;;;68.13;40.30;;;11.40;99.90;;;;;;5021768;28;20045;-81
2021/12/15 11:49:12;;;;;;;68.32;41.00;;;11.40;99.90;;;;;;5044291;28;20373;-81
2021/12/15 11:51:42;;;;;;;63.80;40.00;;;11.40;99.90;;;;;;5048879;28;20041;-81
2021/12/15 11:54:19;;;;;;;67.72;41.80;;;11.40;99.90;;;;;;5041462;28;20480;-80
2021/12/15 11:56:48;;;;;;;62.55;39.60;;;11.40;99.90;;;;;;5041211;28;20048;-81
2021/12/15 11:59:27;;;;;;;61.50;37.38;;;11.50;99.90;;;;;;5042162;28;20091;-79
2021/12/15 12:01:54;;;;;;;60.00;37.80;;;11.40;99.90;;;;;;5036832;28;20060;-79
2021/12/15 12:04:29;;;;;;;62.88;38.90;;;11.40;99.90;;;;;;5037003;28;20438;-79
2021/12/15 12:07:14;;;;;;;63.03;38.78;;;11.40;99.90;;;;;;5042606;28;20025;-78
2021/12/15 12:09:44;;;;;;;60.25;38.35;;;11.50;99.90;;;;;;5036240;28;20396;-79
2021/12/15 12:12:10;;;;;;;62.53;38.95;;;11.50;99.90;;;;;;5033438;28;20107;-79
2021/12/15 12:14:43;;;;;;;58.63;38.00;;;11.50;99.90;;;;;;5036378;28;20095;-79
2021/12/15 12:17:13;;;;;;;63.17;38.42;;;11.50;99.90;;;;;;5032187;28;20072;-79
2021/12/15 12:20:05;;;;;;;58.90;37.03;;;11.50;99.90;;;;;;5038790;28;21019;-80
2021/12/15 12:22:34;;;;;;;61.35;37.13;;;11.50;99.90;;;;;;5037073;28;20514;-79
2021/12/15 12:25:07;;;;;;;54.38;35.55;;;11.50;99.90;;;;;;5039058;28;20049;-80
2021/12/15 12:27:32;;;;;;;56.10;36.60;;;11.50;99.90;;;;;;5036310;28;20029;-78
2021/12/15 12:30:01;;;;;;;53.45;36.10;;;11.50;99.90;;;;;;5054345;28;20024;-83
2021/12/15 12:32:27;;;;;;;57.20;36.92;;;11.50;99.90;;;;;;5060668;28;20018;-89
2021/12/15 12:34:53;;;;;;;51.45;35.88;;;11.50;99.90;;;;;;5055804;28;20040;-88
2021/12/15 12:37:20;;;;;;;52.88;35.35;;;11.50;99.90;;;;;;5048567;28;20021;-83
2021/12/15 12:39:53;;;;;;;51.05;35.17;;;11.50;99.90;;;;;;5042462;28;20036;-79
2021/12/15 12:42:37;;;;;;;52.47;33.95;;;11.50;99.90;;;;;;5040090;28;20029;-88
2021/12/15 12:45:26;;;;;;;51.78;33.08;;;11.60;99.90;;;;;;5036801;28;20124;-85
2021/12/15 12:48:25;;;;;;;50.38;35.05;;;11.70;99.90;;;;;;5037798;28;20100;-86
2021/12/15 12:59:48;;;;;;;45.35;31.58;;;11.80;99.90;;;;;;5026505;28;20040;-83
2021/12/15 13:02:48;;;;;;;46.65;33.00;;;11.90;99.90;;;;;;5053039;28;20021;-84
2021/12/15 13:05:38;;;;;;;45.90;30.23;;;11.90;99.90;;;;;;5048264;28;20112;-86
2021/12/15 13:08:24;;;;;;;39.45;28.08;;;11.90;99.90;;;;;;5033659;28;20472;-83
2021/12/15 13:11:01;;;;;;;41.90;28.50;;;11.80;99.90;;;;;;5032588;28;20048;-86
2021/12/15 13:13:49;;;;;;;40.95;28.77;;;11.80;99.90;;;;;;5033866;28;20029;-85
2021/12/15 13:16:26;;;;;;;40.38;28.40;;;11.80;99.90;;;;;;5033618;28;20128;-83
2021/12/15 13:19:00;;;;;;;36.85;25.92;;;11.80;99.90;;;;;;5050092;28;20100;-84
2021/12/15 13:21:41;;;;;;;37.95;25.30;;;11.80;99.90;;;;;;5032290;28;20057;-82
2021/12/15 13:30:43;;;;;;;35.42;23.30;;;11.80;99.90;;;;;;5053654;28;20044;-81
2021/12/15 13:33:16;;;;;;;32.30;23.08;;;11.80;99.90;;;;;;5033172;28;20018;-82
2021/12/15 13:35:52;;;;;;;;;;;11.80;99.90;;;;;;5033790;28;20113;-82
2021/12/15 13:38:41;;;;;;;31.88;22.08;;;11.80;99.90;;;;;;5033263;28;20295;-82
2021/12/15 13:41:20;;;;;;;34.55;21.70;;;11.80;99.90;;;;;;5033559;28;20053;-80
2021/12/15 13:43:53;;;;;;;33.33;21.52;;;11.80;99.90;;;;;;5036411;28;20029;-80
2021/12/15 13:46:28;;;;;;;36.20;21.20;;;11.80;99.90;;;;;;5035989;28;20026;-81
2021/12/15 13:49:08;;;;;;;27.67;19.02;;;11.80;99.90;;;;;;5039604;28;20057;-81
2021/12/15 13:52:03;;;;;;;27.75;19.63;;;11.80;99.90;;;;;;5052114;28;20021;-82
2021/12/15 13:54:37;;;;;;;26.25;18.10;;;11.80;99.90;;;;;;5046070;28;20021;-82
2021/12/15 13:57:12;;;;;;;26.08;18.25;;;11.80;99.90;;;;;;5048382;28;20550;-81
2021/12/15 13:59:39;;;;;;;27.40;17.35;;;11.70;99.90;;;;;;5041737;28;20029;-79
2021/12/15 14:02:19;;;;;;;23.58;16.38;;;11.80;99.90;;;;;;5040531;28;20115;-84
2021/12/15 14:05:04;;;;;;;25.67;16.70;;;11.80;99.90;;;;;;5045782;28;20032;-82
2021/12/15 14:07:35;;;;;;;23.02;15.88;;;11.80;99.90;;;;;;5044594;28;20551;-84
2021/12/15 14:10:40;;;;;;;25.95;16.67;;;11.80;99.90;;;;;;5036919;28;20029;-83
2021/12/15 14:13:06;;;;;;;24.33;15.95;;;11.80;99.90;;;;;;5047947;28;20150;-83